createdAt,value
2024-05-09T00:02:01.607Z,8.90
2024-05-09T00:04:37.004Z,8.95
2024-05-09T00:07:12.442Z,7.78
2024-05-09T00:09:50.906Z,11.13
2024-05-09T00:12:26.393Z,9.93
2024-05-09T00:15:01.817Z,7.38
2024-05-09T00:17:37.378Z,8.55
2024-05-09T00:20:17.943Z,7.55
2024-05-09T00:22:59.732Z,6.18
2024-05-09T00:25:37.819Z,7.47
2024-05-09T00:28:13.286Z,7.65
2024-05-09T00:30:48.691Z,7.88
2024-05-09T00:33:25.336Z,6.75
2024-05-09T00:36:00.804Z,7.30
2024-05-09T00:38:36.343Z,6.65
2024-05-09T00:41:16.327Z,9.38
2024-05-09T00:43:52.491Z,7.20
2024-05-09T00:46:28.383Z,5.43
2024-05-09T00:49:05.375Z,8.18
2024-05-09T00:51:44.945Z,6.75
2024-05-09T00:54:21.402Z,9.93
2024-05-09T00:56:59.870Z,8.27
2024-05-09T00:59:36.244Z,7.35
2024-05-09T01:02:12.864Z,5.50
2024-05-09T01:04:48.983Z,7.75
2024-05-09T01:07:24.523Z,6.15
2024-05-09T01:09:59.900Z,5.32
2024-05-09T01:12:38.201Z,6.70
2024-05-09T01:15:13.594Z,5.18
2024-05-09T01:17:49.246Z,8.00
2024-05-09T01:20:36.446Z,6.53
2024-05-09T01:23:19.582Z,6.72
2024-05-09T01:25:55.014Z,7.80
2024-05-09T01:28:30.406Z,5.82
2024-05-09T01:31:06.001Z,5.40
2024-05-09T01:33:41.504Z,7.22
2024-05-09T01:36:17.072Z,5.78
2024-05-09T01:38:55.122Z,7.40
2024-05-09T01:41:30.546Z,6.50
2024-05-09T01:44:06.094Z,6.20
2024-05-09T01:46:41.524Z,6.63
2024-05-09T01:49:17.100Z,6.53
2024-05-09T01:51:52.657Z,6.72
2024-05-09T01:54:30.845Z,7.13
2024-05-09T01:57:06.337Z,5.65
2024-05-09T01:59:41.895Z,6.53
2024-05-09T02:02:17.342Z,5.88
2024-05-09T02:04:53.039Z,7.50
2024-05-09T02:07:29.247Z,5.85
2024-05-09T02:10:13.803Z,5.10
2024-05-09T02:12:52.063Z,6.65
2024-05-09T02:15:27.381Z,5.45
2024-05-09T02:18:02.879Z,5.68
2024-05-09T02:20:38.728Z,5.10
2024-05-09T02:23:14.452Z,5.55
2024-05-09T02:25:52.592Z,5.70
2024-05-09T02:28:28.200Z,5.57
2024-05-09T02:31:03.566Z,6.72
2024-05-09T02:33:39.041Z,7.40
2024-05-09T02:36:15.240Z,6.50
2024-05-09T02:38:47.978Z,6.20
2024-05-09T02:41:27.245Z,5.43
2024-05-09T02:44:00.128Z,6.60
2024-05-09T02:46:35.569Z,7.07
2024-05-09T02:49:08.509Z,5.18
2024-05-09T02:51:44.050Z,7.18
2024-05-09T02:54:17.124Z,4.40
2024-05-09T02:56:55.156Z,5.82
2024-05-09T02:59:28.125Z,6.18
2024-05-09T03:02:03.594Z,5.65
2024-05-09T03:04:36.376Z,8.73
2024-05-09T03:07:11.829Z,5.40
2024-05-09T03:09:47.086Z,5.50
2024-05-09T03:12:25.193Z,5.57
2024-05-09T03:14:57.936Z,6.57
2024-05-09T03:17:33.557Z,5.50
2024-05-09T03:20:14.640Z,6.13
2024-05-09T03:22:57.005Z,5.95
2024-05-09T03:25:29.881Z,7.03
2024-05-09T03:28:08.628Z,6.00
2024-05-09T03:30:43.108Z,5.95
2024-05-09T03:33:20.556Z,4.47
2024-05-09T03:35:53.794Z,5.18
2024-05-09T03:38:29.284Z,7.55
2024-05-09T03:41:04.768Z,5.07
2024-05-09T03:43:42.959Z,6.13
2024-05-09T03:46:18.338Z,5.82
2024-05-09T03:48:51.187Z,6.85
2024-05-09T03:51:26.763Z,7.45
2024-05-09T03:54:00.526Z,4.85
2024-05-09T03:56:35.948Z,5.95
2024-05-09T03:59:11.841Z,4.85
2024-05-09T04:01:47.274Z,5.57
2024-05-09T04:04:20.059Z,4.70
2024-05-09T04:06:55.412Z,6.80
2024-05-09T04:09:28.138Z,7.05
2024-05-09T04:12:03.594Z,5.10
2024-05-09T04:14:39.075Z,5.20
2024-05-09T04:17:14.527Z,6.03
2024-05-09T04:19:47.270Z,4.85
2024-05-09T04:22:22.682Z,5.40
2024-05-09T04:24:55.459Z,5.25
2024-05-09T04:27:30.845Z,10.75
2024-05-09T04:30:10.092Z,7.53
2024-05-09T04:32:50.890Z,6.72
2024-05-09T04:35:23.897Z,5.63
2024-05-09T04:37:59.467Z,5.97
2024-05-09T04:40:35.522Z,5.97
2024-05-09T04:43:19.171Z,6.07
2024-05-09T04:45:54.579Z,8.07
2024-05-09T04:48:30.281Z,5.38
2024-05-09T04:51:03.743Z,5.95
2024-05-09T04:53:39.334Z,6.30
2024-05-09T04:56:12.199Z,5.40
2024-05-09T04:58:47.610Z,8.55
2024-05-09T05:01:23.092Z,5.85
2024-05-09T05:03:58.811Z,7.05
2024-05-09T05:06:34.531Z,5.68
2024-05-09T05:09:07.260Z,6.63
2024-05-09T05:11:42.800Z,6.28
2024-05-09T05:14:15.722Z,5.88
2024-05-09T05:16:53.939Z,12.98
2024-05-09T05:19:26.787Z,8.48
2024-05-09T05:22:02.334Z,7.18
2024-05-09T05:24:35.179Z,6.13
2024-05-09T05:27:10.584Z,8.02
2024-05-09T05:29:43.364Z,8.48
2024-05-09T05:32:21.670Z,7.25
2024-05-09T05:34:54.518Z,7.65
2024-05-09T05:37:29.896Z,7.40
2024-05-09T05:40:03.251Z,6.50
2024-05-09T05:42:38.824Z,7.03
2024-05-09T05:45:11.599Z,6.75
2024-05-09T05:47:49.931Z,9.10
2024-05-09T05:50:28.017Z,9.07
2024-05-09T05:53:11.159Z,5.70
2024-05-09T05:55:43.982Z,6.47
2024-05-09T05:58:20.407Z,6.65
2024-05-09T06:00:53.945Z,7.75
2024-05-09T06:03:32.336Z,7.03
2024-05-09T06:06:05.530Z,5.38
2024-05-09T06:08:41.064Z,7.72
2024-05-09T06:11:14.080Z,5.47
2024-05-09T06:13:49.557Z,5.93
2024-05-09T06:16:22.357Z,6.32
2024-05-09T06:19:00.790Z,5.47
2024-05-09T06:21:33.608Z,4.93
2024-05-09T06:24:10.027Z,8.13
2024-05-09T06:26:42.858Z,4.20
2024-05-09T06:29:18.329Z,6.68
2024-05-09T06:31:51.205Z,4.57
2024-05-09T06:34:29.903Z,5.03
2024-05-09T06:37:02.725Z,4.50
2024-05-09T06:39:38.120Z,6.45
2024-05-09T06:42:10.903Z,7.63
2024-05-09T06:44:48.996Z,5.93
2024-05-09T06:47:24.511Z,4.68
2024-05-09T06:50:03.633Z,6.10
2024-05-09T06:52:37.583Z,3.33
2024-05-09T06:55:13.007Z,4.05
2024-05-09T06:57:47.998Z,2.00
2024-05-09T07:00:30.608Z,3.75
2024-05-09T07:03:12.748Z,3.95
2024-05-09T07:05:52.532Z,2.95
2024-05-09T07:08:25.389Z,2.67
2024-05-09T07:11:01.005Z,2.78
2024-05-09T07:13:33.924Z,2.63
2024-05-09T07:16:10.842Z,6.22
2024-05-09T07:18:43.802Z,3.63
2024-05-09T07:21:21.971Z,2.25
2024-05-09T07:23:54.783Z,2.65
2024-05-09T07:26:30.271Z,4.50
2024-05-09T07:29:03.481Z,4.00
2024-05-09T07:31:38.945Z,3.58
2024-05-09T07:34:13.491Z,4.15
2024-05-09T07:39:24.728Z,3.35
2024-05-09T07:42:00.152Z,2.88
2024-05-09T07:44:33.120Z,3.05
2024-05-09T07:48:14.678Z,2.45
2024-05-09T07:51:51.327Z,3.38
2024-05-09T07:53:35.937Z,3.00
2024-05-09T07:55:53.160Z,2.72
2024-05-09T07:58:29.159Z,3.35
2024-05-09T08:01:02.879Z,3.30
2024-05-09T08:03:38.636Z,4.20
2024-05-09T08:06:11.529Z,2.35
2024-05-09T08:08:49.669Z,2.80
2024-05-09T08:11:23.416Z,3.95
2024-05-09T08:13:58.818Z,2.30
2024-05-09T08:16:31.691Z,2.38
2024-05-09T08:19:07.563Z,4.60
2024-05-09T08:21:40.405Z,2.30
2024-05-09T08:24:18.512Z,2.60
2024-05-09T08:26:52.500Z,2.40
2024-05-09T08:29:28.243Z,3.95
2024-05-09T08:32:01.672Z,4.28
2024-05-09T08:34:43.571Z,2.72
2024-05-09T08:37:22.142Z,2.28
2024-05-09T08:42:38.008Z,3.30
2024-05-09T08:45:16.533Z,3.72
2024-05-09T08:47:51.720Z,3.17
2024-05-09T08:50:35.615Z,3.47
2024-05-09T08:53:11.432Z,3.17
2024-05-09T08:55:50.203Z,2.83
2024-05-09T08:58:23.958Z,2.33
2024-05-09T09:01:00.519Z,3.28
2024-05-09T09:03:37.012Z,2.83
2024-05-09T09:06:15.491Z,2.58
2024-05-09T09:08:48.843Z,4.63
2024-05-09T09:11:26.891Z,2.97
2024-05-09T09:13:59.608Z,4.22
2024-05-09T09:16:36.351Z,3.25
2024-05-09T09:19:09.181Z,3.15
2024-05-09T09:21:45.067Z,3.15
2024-05-09T09:24:17.823Z,3.08
2024-05-09T09:26:56.594Z,2.33
2024-05-09T09:29:31.162Z,2.50
2024-05-09T09:32:08.698Z,3.15
2024-05-09T09:34:41.817Z,2.45
2024-05-09T09:37:20.028Z,4.65
2024-05-09T09:39:53.682Z,3.45
2024-05-09T09:42:34.535Z,2.47
2024-05-09T09:45:07.981Z,2.45
2024-05-09T09:47:44.606Z,2.95
2024-05-09T09:50:24.099Z,3.35
2024-05-09T09:53:07.812Z,2.60
2024-05-09T09:55:42.063Z,2.45
2024-05-09T09:58:21.169Z,3.25
2024-05-09T10:00:54.383Z,9.88
2024-05-09T10:03:31.327Z,3.35
2024-05-09T10:06:31.173Z,3.13
2024-05-09T10:09:09.518Z,7.22
2024-05-09T10:12:00.410Z,6.32
2024-05-09T10:17:51.506Z,2.70
2024-05-09T10:20:55.907Z,6.85
2024-05-09T10:23:43.529Z,2.55
2024-05-09T10:26:18.801Z,3.20
2024-05-09T10:29:06.786Z,2.85
2024-05-09T10:31:43.844Z,2.83
2024-05-09T10:34:24.678Z,3.28
2024-05-09T10:37:17.923Z,4.13
2024-05-09T10:39:57.998Z,3.08
2024-05-09T10:42:32.015Z,3.78
2024-05-09T10:45:10.956Z,2.92
2024-05-09T10:47:48.598Z,2.42
2024-05-09T10:50:28.694Z,2.40
2024-05-09T10:53:05.647Z,2.97
2024-05-09T10:55:41.474Z,4.53
2024-05-09T10:58:19.052Z,3.13
2024-05-09T11:00:56.431Z,4.22
2024-05-09T11:03:33.900Z,3.88
2024-05-09T11:06:10.036Z,2.92
2024-05-09T11:08:46.272Z,3.55
2024-05-09T11:11:22.108Z,2.30
2024-05-09T11:13:56.186Z,3.45
2024-05-09T11:16:33.776Z,4.55
2024-05-09T11:19:12.998Z,4.20
2024-05-09T11:21:54.106Z,3.50
2024-05-09T11:24:27.132Z,2.95
2024-05-09T11:27:03.865Z,4.10
2024-05-09T11:29:38.843Z,2.40
2024-05-09T11:32:16.656Z,3.38
2024-05-09T11:34:55.268Z,3.58
2024-05-09T11:37:33.992Z,3.50
2024-05-09T11:40:17.081Z,3.20
2024-05-09T11:42:57.870Z,2.80
2024-05-09T11:45:35.293Z,2.42
2024-05-09T11:48:09.143Z,3.55
2024-05-09T11:50:47.792Z,3.15
2024-05-09T11:53:20.606Z,4.30
2024-05-09T11:55:58.998Z,3.03
2024-05-09T11:58:34.871Z,2.92
2024-05-09T12:01:10.620Z,3.13
2024-05-09T12:03:45.062Z,3.13
2024-05-09T12:06:23.906Z,3.75
2024-05-09T12:08:57.297Z,2.47
2024-05-09T12:11:33.073Z,4.05
2024-05-09T12:14:06.674Z,3.33
2024-05-09T12:16:42.363Z,3.53
2024-05-09T12:19:15.877Z,4.93
2024-05-09T12:21:54.507Z,2.80
2024-05-09T12:24:31.039Z,3.08
2024-05-09T12:27:04.385Z,4.00
2024-05-09T12:29:39.843Z,2.85
2024-05-09T12:32:12.697Z,2.95
2024-05-09T12:34:48.396Z,2.25
2024-05-09T12:37:24.147Z,2.55
2024-05-09T12:39:59.850Z,4.03
2024-05-09T12:42:33.854Z,2.97
2024-05-09T12:45:10.348Z,3.10
2024-05-09T12:47:43.396Z,3.10
2024-05-09T12:50:28.784Z,2.13
2024-05-09T12:53:07.812Z,3.97
2024-05-09T12:55:52.944Z,2.85
2024-05-09T12:58:30.460Z,2.40
2024-05-09T13:01:06.757Z,3.83
2024-05-09T13:03:39.972Z,3.42
2024-05-09T13:06:15.840Z,2.60
2024-05-09T13:08:51.462Z,3.58
2024-05-09T13:11:27.054Z,3.60
2024-05-09T13:14:01.247Z,2.15
2024-05-09T13:16:37.188Z,2.60
2024-05-09T13:19:11.709Z,8.27
2024-05-09T13:21:47.352Z,2.35
2024-05-09T13:24:23.143Z,2.67
2024-05-09T13:26:58.706Z,3.45
2024-05-09T13:29:32.197Z,4.45
2024-05-09T13:32:08.652Z,3.78
2024-05-09T13:34:41.547Z,4.05
2024-05-09T13:37:17.353Z,4.97
2024-05-09T13:39:53.180Z,4.53
2024-05-09T13:42:28.848Z,2.85
2024-05-09T13:45:01.774Z,4.05
2024-05-09T13:47:37.606Z,2.90
2024-05-09T13:50:16.774Z,2.40
2024-05-09T13:52:58.648Z,2.75
2024-05-09T13:55:34.263Z,3.58
2024-05-09T13:58:10.260Z,3.63
2024-05-09T14:00:47.901Z,3.05
2024-05-09T14:03:25.146Z,2.25
2024-05-09T14:05:58.549Z,3.55
2024-05-09T14:08:34.198Z,3.88
2024-05-09T14:11:10.029Z,4.30
2024-05-09T14:13:45.799Z,2.72
2024-05-09T14:16:19.391Z,3.00
2024-05-09T14:18:55.207Z,7.10
2024-05-09T14:21:28.029Z,2.72
2024-05-09T14:24:03.936Z,2.58
2024-05-09T14:26:39.544Z,2.75
2024-05-09T14:29:15.084Z,4.00
2024-05-09T14:31:48.401Z,4.63
2024-05-09T14:34:24.230Z,4.05
2024-05-09T14:36:59.041Z,4.28
2024-05-09T14:39:34.839Z,3.17
2024-05-09T14:42:10.572Z,4.43
2024-05-09T14:44:46.294Z,3.97
2024-05-09T14:47:19.384Z,3.35
2024-05-09T14:49:54.914Z,3.38
2024-05-09T14:52:27.837Z,3.15
2024-05-09T14:55:03.624Z,3.28
2024-05-09T14:57:39.330Z,3.55
2024-05-09T15:00:21.475Z,2.88
2024-05-09T15:03:01.511Z,3.25
2024-05-09T15:05:37.210Z,3.72
2024-05-09T15:08:10.105Z,3.08
2024-05-09T15:10:45.874Z,2.70
2024-05-09T15:13:21.805Z,3.60
2024-05-09T15:15:57.509Z,3.13
2024-05-09T15:18:30.581Z,3.92
2024-05-09T15:21:06.281Z,2.88
2024-05-09T15:23:39.426Z,3.83
2024-05-09T15:26:15.221Z,3.38
2024-05-09T15:28:50.786Z,2.72
2024-05-09T15:31:26.592Z,3.33
2024-05-09T15:33:59.703Z,3.10
2024-05-09T15:36:35.255Z,4.60
2024-05-09T15:39:08.438Z,4.53
2024-05-09T15:41:44.042Z,3.38
2024-05-09T15:44:19.896Z,2.83
2024-05-09T15:46:56.549Z,3.35
2024-05-09T15:49:29.777Z,4.40
2024-05-09T15:54:39.371Z,4.03
2024-05-09T15:57:15.196Z,3.25
2024-05-09T15:59:51.107Z,2.78
2024-05-09T16:02:27.002Z,3.15
2024-05-09T16:05:00.120Z,3.25
2024-05-09T16:07:36.140Z,2.47
2024-05-09T16:10:11.184Z,4.47
2024-05-09T16:12:48.640Z,2.92
2024-05-09T16:15:25.383Z,3.45
2024-05-09T16:18:01.061Z,3.83
2024-05-09T16:20:39.318Z,4.00
2024-05-09T16:23:17.147Z,5.75
2024-05-09T16:25:51.648Z,3.65
2024-05-09T16:31:03.080Z,2.80
2024-05-09T16:33:40.552Z,2.92
2024-05-09T16:36:13.595Z,4.00
2024-05-09T16:38:49.055Z,4.32
2024-05-09T16:41:21.921Z,3.25
2024-05-09T16:43:58.142Z,2.78
2024-05-09T16:46:35.086Z,3.53
2024-05-09T16:49:11.182Z,3.03
2024-05-09T16:51:44.034Z,2.33
2024-05-09T16:54:19.478Z,4.25
2024-05-09T16:56:52.399Z,2.72
2024-05-09T16:59:28.089Z,2.90
2024-05-09T17:02:04.072Z,2.85
2024-05-09T17:04:39.900Z,4.85
2024-05-09T17:07:12.956Z,2.55
2024-05-09T17:09:48.514Z,2.78
2024-05-09T17:12:23.984Z,2.88
2024-05-09T17:14:59.531Z,4.63
2024-05-09T17:17:37.803Z,2.70
2024-05-09T17:20:23.099Z,2.30
2024-05-09T17:23:02.799Z,7.40
2024-05-09T17:25:38.289Z,5.10
2024-05-09T17:28:11.815Z,4.78
2024-05-09T17:30:48.707Z,6.28
2024-05-09T17:33:24.402Z,3.33
2024-05-09T17:36:00.043Z,3.58
2024-05-09T17:38:32.764Z,3.63
2024-05-09T17:41:08.646Z,3.33
2024-05-09T17:43:41.433Z,4.93
2024-05-09T17:46:17.131Z,3.75
2024-05-09T17:48:52.858Z,3.75
2024-05-09T17:51:28.409Z,3.55
2024-05-09T17:54:01.195Z,3.85
2024-05-09T17:56:36.713Z,3.53
2024-05-09T17:59:11.553Z,3.13
2024-05-09T18:01:47.270Z,4.78
2024-05-09T18:04:22.947Z,3.67
2024-05-09T18:06:58.752Z,3.83
2024-05-09T18:09:31.843Z,5.20
2024-05-09T18:12:07.727Z,3.97
2024-05-09T18:14:40.543Z,2.35
2024-05-09T18:17:16.042Z,3.25
2024-05-09T18:19:51.597Z,3.00
2024-05-09T18:22:27.086Z,3.15
2024-05-09T18:24:59.944Z,3.97
2024-05-09T18:27:35.551Z,5.07
2024-05-09T18:30:23.771Z,3.55
2024-05-09T18:33:04.329Z,4.93
2024-05-09T18:35:42.968Z,4.65
2024-05-09T18:38:18.655Z,4.15
2024-05-09T18:40:54.280Z,4.88
2024-05-09T18:43:31.687Z,3.65
2024-05-09T18:46:13.898Z,5.68
2024-05-09T18:48:46.902Z,5.18
2024-05-09T18:51:25.103Z,4.55
2024-05-09T18:53:57.848Z,4.28
2024-05-09T18:56:33.311Z,4.85
2024-05-09T18:59:06.790Z,3.88
2024-05-09T19:01:42.457Z,5.68
2024-05-09T19:04:18.547Z,5.38
2024-05-09T19:06:57.016Z,4.38
2024-05-09T19:09:29.891Z,4.20
2024-05-09T19:12:06.614Z,4.18
2024-05-09T19:14:39.430Z,6.65
2024-05-09T19:17:15.070Z,6.28
2024-05-09T19:19:49.352Z,6.22
2024-05-09T19:22:28.347Z,7.30
2024-05-09T19:25:01.188Z,6.13
2024-05-09T19:27:37.059Z,8.90
2024-05-09T19:30:17.254Z,6.57
2024-05-09T19:32:58.300Z,10.38
2024-05-09T19:35:32.831Z,7.80
2024-05-09T19:38:11.858Z,7.45
2024-05-09T19:40:44.688Z,7.22
2024-05-09T19:43:20.178Z,7.60
2024-05-09T19:45:53.430Z,7.18
2024-05-09T19:48:28.994Z,6.97
2024-05-09T19:51:03.031Z,10.30
2024-05-09T19:53:41.300Z,8.38
2024-05-09T19:56:14.162Z,8.63
2024-05-09T19:58:49.530Z,12.43
2024-05-09T20:01:22.420Z,10.10
2024-05-09T20:03:59.363Z,8.45
2024-05-09T20:06:32.569Z,8.48
2024-05-09T20:09:11.510Z,9.75
2024-05-09T20:11:44.341Z,8.35
2024-05-09T20:14:19.928Z,11.98
2024-05-09T20:16:52.919Z,7.53
2024-05-09T20:19:28.598Z,9.55
2024-05-09T20:22:01.470Z,9.20
2024-05-09T20:24:39.645Z,10.20
2024-05-09T20:27:12.484Z,10.15
2024-05-09T20:29:47.865Z,8.75
2024-05-09T20:32:20.785Z,8.10
2024-05-09T20:34:56.418Z,10.80
2024-05-09T20:37:29.213Z,9.93
2024-05-09T20:40:12.146Z,9.30
2024-05-09T20:42:48.401Z,10.63
2024-05-09T20:45:23.958Z,9.90
2024-05-09T20:47:57.850Z,9.07
2024-05-09T20:50:39.685Z,8.52
2024-05-09T20:53:15.482Z,9.23
2024-05-09T20:55:53.799Z,9.45
2024-05-09T20:58:26.750Z,11.80
2024-05-09T21:01:02.440Z,8.95
2024-05-09T21:06:13.396Z,9.52
2024-05-09T21:08:46.315Z,7.53
2024-05-09T21:11:25.269Z,11.18
2024-05-09T21:13:58.576Z,9.18
2024-05-09T21:16:34.377Z,8.40
2024-05-09T21:19:07.287Z,10.30
2024-05-09T21:21:43.271Z,9.70
2024-05-09T21:24:16.132Z,10.80
2024-05-09T21:26:54.389Z,9.48
2024-05-09T21:29:27.199Z,12.10
2024-05-09T21:32:02.789Z,9.50
2024-05-09T21:34:35.638Z,8.30
2024-05-09T21:37:11.136Z,9.25
2024-05-09T21:39:43.981Z,9.90
2024-05-09T21:42:22.114Z,10.07
2024-05-09T21:44:54.863Z,8.35
2024-05-09T21:47:30.372Z,7.63
2024-05-09T21:50:03.712Z,10.23
2024-05-09T21:52:40.145Z,8.80
2024-05-09T21:55:13.269Z,9.27
2024-05-09T21:57:51.455Z,8.20
2024-05-09T22:00:32.271Z,9.07
2024-05-09T22:03:12.825Z,8.82
2024-05-09T22:05:45.901Z,9.32
2024-05-09T22:08:21.562Z,10.18
2024-05-09T22:10:54.534Z,7.05
2024-05-09T22:13:32.700Z,9.35
2024-05-09T22:16:06.542Z,10.35
2024-05-09T22:18:42.469Z,9.43
2024-05-09T22:21:15.587Z,9.05
2024-05-09T22:23:51.127Z,8.65
2024-05-09T22:26:23.921Z,7.43
2024-05-09T22:29:01.965Z,8.10
2024-05-09T22:31:34.989Z,7.47
2024-05-09T22:34:10.604Z,5.95
2024-05-09T22:36:43.531Z,6.93
2024-05-09T22:39:19.055Z,8.88
2024-05-09T22:41:51.772Z,6.30
2024-05-09T22:44:30.214Z,6.57
2024-05-09T22:47:03.092Z,9.40
2024-05-09T22:49:38.762Z,7.50
2024-05-09T22:52:11.794Z,8.07
2024-05-09T22:54:47.567Z,5.30
2024-05-09T22:57:20.277Z,9.13
2024-05-09T22:59:58.539Z,7.03
2024-05-09T23:02:31.246Z,8.15
2024-05-09T23:05:06.813Z,7.18
2024-05-09T23:07:39.628Z,7.60
2024-05-09T23:10:21.296Z,8.75
2024-05-09T23:13:00.626Z,8.18
2024-05-09T23:15:39.594Z,8.18
2024-05-09T23:18:12.623Z,7.20
2024-05-09T23:20:48.045Z,7.82
2024-05-09T23:23:20.921Z,6.55
2024-05-09T23:25:58.774Z,8.45
2024-05-09T23:28:31.974Z,8.20
2024-05-09T23:31:10.524Z,7.80
2024-05-09T23:33:46.509Z,8.18
2024-05-09T23:36:22.220Z,8.82
2024-05-09T23:38:55.342Z,6.45
2024-05-09T23:41:30.758Z,6.90
2024-05-09T23:44:03.597Z,6.85
2024-05-09T23:46:41.822Z,5.95
2024-05-09T23:49:14.926Z,5.47
2024-05-09T23:51:50.418Z,8.25
2024-05-09T23:54:23.213Z,7.13
2024-05-09T23:56:58.668Z,7.50
2024-05-09T23:59:31.561Z,6.88
